Darstellungsparameter: Aktuell verwendete Einstellungen:
Skalierung der Graphiken ... ?
xyx+y,   Skalierungsfaktor:      Skalierung: Modus: x, Faktor: 1
Darstellungszeitraum ... ?
Vom - - bis: - -   Zeitraum: 18.05.2021 - 18.05.2021
Min/Max/Avg-Anzeige ... ?
Zeige MMA aktuell
Zeige MMA Monat
Zeige MMA alles
Zeige --A aktuell
Zeige --A Monat
Zeige --A alles
Keine MMA-Anzeige
MMA:
Keine MMA-Graphiken
MMA-Basis: 18.05.2021 - 18.05.2021
Quicknavigation für Darstellung... ?
Tage:      1T, 2T, 3T, 5T -1T -2T -3T -5T +1T +2T +3T +5T
Wochen: 1W, 2W, 3W -1W -2W -3W +1W +2W +3W
Monate: 1M, 3M, 6M -1M -3M -6M +1M +3M +6M
Jahre:    1J, 3J, 5J, 10J -1J -3J -5J -10J +1J +3J +5J +10J
Nutze für die Darstellung ... ?
Originaldaten oder Mittelwerte auf ...
Stundenbasis Tagesbasis Wochenbasis
Monatsbasis Jahresbasis      Datenbasis: Original-Daten
Darstellen als:
Statistik (Auto) Statistik J:M      Darstellung:

Der gewünschte Datumsbereich war nicht gültig/verfügbar und wurde korrigiert....
Das angegebene Enddatum (05.09.2023 23:59:59) liegt in der Zukunft.
Das angegebene Startdatum (06.03.2023 00:00:00) liegt in der Zukunft.


Zur Graphik,    zurück zur Übersicht aller Sensoren.
 
Tabellarische Datenbersicht: ?
 
Sensor: Nr:Datum:Temp:Feuchte:Taupunkt:
Aussen-T/F 1 18-05-2021 02:00:00 10.9 C 89 % 9.16 C
2 18-05-2021 02:05:00 10.9 C 90 % 9.33 C
3 18-05-2021 02:10:00 10.9 C 90 % 9.33 C
4 18-05-2021 02:15:00 10.8 C 90 % 9.23 C
5 18-05-2021 02:20:00 10.8 C 90 % 9.23 C
6 18-05-2021 02:25:00 10.7 C 91 % 9.29 C
7 18-05-2021 02:30:00 10.7 C 91 % 9.29 C
8 18-05-2021 02:35:00 10.6 C 91 % 9.19 C
9 18-05-2021 02:40:00 10.5 C 92 % 9.26 C
10 18-05-2021 02:45:00 10.4 C 92 % 9.16 C
11 18-05-2021 02:50:00 10.3 C 92 % 9.06 C
12 18-05-2021 02:55:00 10.2 C 92 % 8.96 C
13 18-05-2021 03:00:00 10.2 C 92 % 8.96 C
14 18-05-2021 03:05:00 10.2 C 92 % 8.96 C
15 18-05-2021 03:10:00 10.1 C 92 % 8.86 C
16 18-05-2021 03:15:00 10.1 C 93 % 9.02 C
17 18-05-2021 03:20:00 10 C 93 % 8.92 C
18 18-05-2021 03:25:00 9.9 C 93 % 8.82 C
19 18-05-2021 03:30:00 9.8 C 93 % 8.72 C
20 18-05-2021 03:35:00 9.8 C 93 % 8.72 C
21 18-05-2021 03:40:00 9.8 C 93 % 8.72 C
22 18-05-2021 03:45:00 9.7 C 93 % 8.62 C
23 18-05-2021 03:50:00 9.7 C 93 % 8.62 C
24 18-05-2021 03:55:00 9.7 C 93 % 8.62 C
25 18-05-2021 04:00:00 9.6 C 93 % 8.53 C
Sensor: Nr:Datum:Temp:Feuchte:Taupunkt:
Aussen-T/F 26 18-05-2021 04:05:00 9.5 C 93 % 8.43 C
27 18-05-2021 04:10:00 9.4 C 93 % 8.33 C
28 18-05-2021 04:15:00 9.4 C 93 % 8.33 C
29 18-05-2021 04:20:00 9.3 C 93 % 8.23 C
30 18-05-2021 04:25:00 9.3 C 93 % 8.23 C
31 18-05-2021 04:30:00 9.3 C 93 % 8.23 C
32 18-05-2021 04:35:00 9.3 C 93 % 8.23 C
33 18-05-2021 04:40:00 9.4 C 93 % 8.33 C
34 18-05-2021 04:45:00 9.4 C 93 % 8.33 C
35 18-05-2021 04:50:00 9.4 C 93 % 8.33 C
36 18-05-2021 04:55:00 9.4 C 93 % 8.33 C
37 18-05-2021 05:00:00 9.3 C 93 % 8.23 C
38 18-05-2021 05:05:00 9.3 C 93 % 8.23 C
39 18-05-2021 05:10:00 9.2 C 93 % 8.13 C
40 18-05-2021 05:15:00 9.2 C 93 % 8.13 C
41 18-05-2021 05:20:00 9.3 C 94 % 8.39 C
42 18-05-2021 05:25:00 9.3 C 94 % 8.39 C
43 18-05-2021 05:30:00 9.4 C 93 % 8.33 C
44 18-05-2021 05:35:00 9.4 C 93 % 8.33 C
45 18-05-2021 05:40:00 9.4 C 93 % 8.33 C
46 18-05-2021 05:45:00 9.4 C 93 % 8.33 C
47 18-05-2021 05:50:00 9.4 C 93 % 8.33 C
48 18-05-2021 05:55:00 9.3 C 93 % 8.23 C
49 18-05-2021 06:00:00 9.3 C 93 % 8.23 C
50 18-05-2021 06:05:00 9.2 C 93 % 8.13 C
Sensor: Nr:Datum:Temp:Feuchte:Taupunkt:
Aussen-T/F 51 18-05-2021 06:10:00 9.1 C 92 % 7.87 C
52 18-05-2021 06:15:00 9.1 C 92 % 7.87 C
53 18-05-2021 06:20:00 9 C 93 % 7.93 C
54 18-05-2021 06:25:00 8.9 C 93 % 7.83 C
55 18-05-2021 06:30:00 8.8 C 93 % 7.73 C
56 18-05-2021 06:35:00 8.8 C 93 % 7.73 C
57 18-05-2021 06:40:00 8.8 C 93 % 7.73 C
58 18-05-2021 06:45:00 8.8 C 93 % 7.73 C
59 18-05-2021 06:50:00 8.9 C 94 % 7.99 C
60 18-05-2021 06:55:00 9 C 94 % 8.09 C
61 18-05-2021 07:00:00 9.1 C 94 % 8.19 C
62 18-05-2021 07:05:00 9.1 C 94 % 8.19 C
63 18-05-2021 07:10:00 9.2 C 94 % 8.29 C
64 18-05-2021 07:15:00 9.2 C 94 % 8.29 C
65 18-05-2021 07:20:00 9.3 C 94 % 8.39 C
66 18-05-2021 07:25:00 9.4 C 94 % 8.48 C
67 18-05-2021 07:30:00 9.5 C 94 % 8.58 C
68 18-05-2021 07:35:00 9.7 C 94 % 8.78 C
69 18-05-2021 07:40:00 9.8 C 94 % 8.88 C
70 18-05-2021 07:45:00 10.1 C 94 % 9.18 C
71 18-05-2021 07:50:00 10.2 C 93 % 9.12 C
72 18-05-2021 07:55:00 10.3 C 93 % 9.22 C
73 18-05-2021 08:00:00 10.4 C 93 % 9.32 C
74 18-05-2021 08:05:00 10.5 C 92 % 9.26 C
75 18-05-2021 08:10:00 10.8 C 91 % 9.39 C
Sensor: Nr:Datum:Temp:Feuchte:Taupunkt:
Aussen-T/F 76 18-05-2021 08:15:00 11 C 90 % 9.42 C
77 18-05-2021 08:20:00 11.1 C 89 % 9.36 C
78 18-05-2021 08:25:00 11.2 C 89 % 9.46 C
79 18-05-2021 08:30:00 11.3 C 88 % 9.39 C
80 18-05-2021 08:35:00 11.3 C 88 % 9.39 C
81 18-05-2021 08:40:00 11.4 C 88 % 9.49 C
82 18-05-2021 08:45:00 11.5 C 88 % 9.58 C
83 18-05-2021 08:50:00 11.7 C 87 % 9.61 C
84 18-05-2021 08:55:00 11.8 C 86 % 9.54 C
85 18-05-2021 09:00:00 12 C 86 % 9.73 C
86 18-05-2021 09:05:00 12.1 C 85 % 9.66 C
87 18-05-2021 09:10:00 12.1 C 84 % 9.48 C
88 18-05-2021 09:15:00 12.1 C 84 % 9.48 C
89 18-05-2021 09:20:00 11.9 C 84 % 9.29 C
90 18-05-2021 09:25:00 11.8 C 86 % 9.54 C
91 18-05-2021 09:30:00 11.7 C 87 % 9.61 C
92 18-05-2021 09:35:00 11.5 C 88 % 9.58 C
93 18-05-2021 09:40:00 11.3 C 89 % 9.55 C
94 18-05-2021 09:45:00 11.1 C 88 % 9.19 C
95 18-05-2021 09:50:00 10.7 C 88 % 8.8 C
96 18-05-2021 09:55:00 10.6 C 89 % 8.86 C
97 18-05-2021 10:00:00 10.6 C 90 % 9.03 C
98 18-05-2021 10:05:00 10.5 C 91 % 9.09 C
99 18-05-2021 10:10:00 10.4 C 91 % 9 C
100 18-05-2021 10:15:00 10.3 C 91 % 8.9 C
Sensor: Nr:Datum:Temp:Feuchte:Taupunkt:
Aussen-T/F 101 18-05-2021 10:20:00 10.3 C 92 % 9.06 C
102 18-05-2021 10:25:00 10.2 C 92 % 8.96 C
103 18-05-2021 10:30:00 10.2 C 92 % 8.96 C
104 18-05-2021 10:35:00 10.1 C 92 % 8.86 C
105 18-05-2021 10:40:00 10.1 C 92 % 8.86 C
106 18-05-2021 10:45:00 10.1 C 92 % 8.86 C
107 18-05-2021 10:50:00 10.2 C 92 % 8.96 C
108 18-05-2021 10:55:00 10.3 C 93 % 9.22 C
109 18-05-2021 11:00:00 10.4 C 93 % 9.32 C
110 18-05-2021 11:05:00 10.6 C 93 % 9.52 C
111 18-05-2021 11:10:00 10.6 C 93 % 9.52 C
112 18-05-2021 11:15:00 10.8 C 93 % 9.71 C
113 18-05-2021 11:20:00 10.8 C 93 % 9.71 C
114 18-05-2021 11:25:00 11 C 93 % 9.91 C
115 18-05-2021 11:30:00 11.1 C 92 % 9.85 C
116 18-05-2021 11:35:00 11.1 C 91 % 9.69 C
117 18-05-2021 11:40:00 11.1 C 91 % 9.69 C
118 18-05-2021 11:45:00 11 C 90 % 9.42 C
119 18-05-2021 11:50:00 10.9 C 90 % 9.33 C
120 18-05-2021 11:55:00 10.9 C 90 % 9.33 C
121 18-05-2021 12:00:00 10.9 C 90 % 9.33 C
122 18-05-2021 12:05:00 10.9 C 90 % 9.33 C
123 18-05-2021 12:10:00 11 C 90 % 9.42 C
124 18-05-2021 12:15:00 11.2 C 90 % 9.62 C
125 18-05-2021 12:20:00 11.5 C 89 % 9.75 C
Sensor: Nr:Datum:Temp:Feuchte:Taupunkt:
Aussen-T/F 126 18-05-2021 12:25:00 11.7 C 89 % 9.95 C
127 18-05-2021 12:30:00 11.9 C 87 % 9.81 C
128 18-05-2021 12:35:00 12.1 C 86 % 9.83 C
129 18-05-2021 12:40:00 12.1 C 86 % 9.83 C
130 18-05-2021 12:45:00 12.2 C 85 % 9.76 C
131 18-05-2021 12:50:00 12.2 C 84 % 9.58 C
132 18-05-2021 12:55:00 12.2 C 85 % 9.76 C
133 18-05-2021 13:00:00 12.3 C 83 % 9.5 C
134 18-05-2021 13:05:00 12.6 C 84 % 9.97 C
135 18-05-2021 13:10:00 12.9 C 83 % 10.09 C
136 18-05-2021 13:15:00 13.2 C 81 % 10.01 C
137 18-05-2021 13:20:00 13.3 C 80 % 9.93 C
138 18-05-2021 13:25:00 13.6 C 79 % 10.03 C
139 18-05-2021 13:30:00 13.9 C 80 % 10.51 C
140 18-05-2021 13:35:00 14.1 C 79 % 10.52 C
141 18-05-2021 13:40:00 14.2 C 80 % 10.8 C
142 18-05-2021 13:45:00 14.4 C 77 % 10.42 C
143 18-05-2021 13:50:00 14.5 C 76 % 10.32 C
144 18-05-2021 13:55:00 14.3 C 73 % 9.53 C
145 18-05-2021 14:00:00 13.5 C 75 % 9.16 C
146 18-05-2021 14:05:00 12.6 C 78 % 8.87 C
147 18-05-2021 14:10:00 12 C 82 % 9.03 C
148 18-05-2021 14:15:00 11.6 C 85 % 9.17 C
149 18-05-2021 14:20:00 11.4 C 86 % 9.14 C
150 18-05-2021 14:25:00 11.3 C 88 % 9.39 C
Sensor: Nr:Datum:Temp:Feuchte:Taupunkt:
Aussen-T/F 151 18-05-2021 14:30:00 11.3 C 89 % 9.55 C
152 18-05-2021 14:35:00 11.3 C 91 % 9.89 C
153 18-05-2021 14:40:00 11.4 C 91 % 9.98 C
154 18-05-2021 14:45:00 11.7 C 92 % 10.44 C
155 18-05-2021 14:50:00 11.7 C 91 % 10.28 C
156 18-05-2021 14:55:00 11.7 C 90 % 10.12 C
157 18-05-2021 15:00:00 11.4 C 89 % 9.65 C
158 18-05-2021 15:05:00 11.2 C 90 % 9.62 C
159 18-05-2021 15:10:00 11.2 C 90 % 9.62 C
160 18-05-2021 15:15:00 11.2 C 91 % 9.79 C
161 18-05-2021 15:20:00 11.2 C 92 % 9.95 C
162 18-05-2021 15:25:00 11.2 C 92 % 9.95 C
163 18-05-2021 15:30:00 11.2 C 92 % 9.95 C
164 18-05-2021 15:35:00 11.2 C 93 % 10.11 C
165 18-05-2021 15:40:00 11.3 C 93 % 10.21 C
166 18-05-2021 15:45:00 11.4 C 93 % 10.31 C
167 18-05-2021 15:50:00 11.5 C 93 % 10.41 C
168 18-05-2021 15:55:00 11.8 C 94 % 10.87 C
169 18-05-2021 16:00:00 11.9 C 94 % 10.97 C
170 18-05-2021 16:05:00 12.1 C 94 % 11.16 C
171 18-05-2021 16:10:00 12.1 C 93 % 11 C
172 18-05-2021 16:15:00 12.2 C 93 % 11.1 C
173 18-05-2021 16:20:00 12.1 C 93 % 11 C
174 18-05-2021 16:25:00 11.9 C 92 % 10.64 C
175 18-05-2021 16:30:00 11.7 C 92 % 10.44 C
Sensor: Nr:Datum:Temp:Feuchte:Taupunkt:
Aussen-T/F 176 18-05-2021 16:35:00 11.6 C 92 % 10.35 C
177 18-05-2021 16:40:00 11.4 C 92 % 10.15 C
178 18-05-2021 16:45:00 11.3 C 93 % 10.21 C
179 18-05-2021 16:50:00 11.3 C 93 % 10.21 C
180 18-05-2021 16:55:00 11.6 C 94 % 10.67 C
181 18-05-2021 17:00:00 12.7 C 96 % 12.08 C
182 18-05-2021 17:05:00 13.3 C 95 % 12.52 C
183 18-05-2021 17:10:00 13.4 C 90 % 11.79 C
184 18-05-2021 17:15:00 13.4 C 90 % 11.79 C
185 18-05-2021 17:20:00 13.3 C 89 % 11.53 C
186 18-05-2021 17:25:00 13.2 C 90 % 11.6 C
187 18-05-2021 17:30:00 13.1 C 90 % 11.5 C
188 18-05-2021 17:35:00 12.7 C 87 % 10.59 C
189 18-05-2021 17:40:00 12.6 C 88 % 10.67 C
190 18-05-2021 17:45:00 12.4 C 88 % 10.47 C
191 18-05-2021 17:50:00 12.3 C 90 % 10.71 C
192 18-05-2021 17:55:00 12.2 C 90 % 10.61 C
193 18-05-2021 18:00:00 12.1 C 91 % 10.68 C
194 18-05-2021 18:05:00 11.9 C 91 % 10.48 C
195 18-05-2021 18:10:00 12.1 C 93 % 11 C
196 18-05-2021 18:15:00 12.8 C 94 % 11.86 C
197 18-05-2021 18:20:00 13.5 C 90 % 11.89 C
198 18-05-2021 18:25:00 14.2 C 89 % 12.41 C
199 18-05-2021 18:30:00 14.3 C 85 % 11.81 C
200 18-05-2021 18:35:00 14.4 C 86 % 12.09 C
Sensor: Nr:Datum:Temp:Feuchte:Taupunkt:
Aussen-T/F 201 18-05-2021 18:40:00 14.8 C 87 % 12.66 C
202 18-05-2021 18:45:00 14.9 C 85 % 12.4 C
203 18-05-2021 18:50:00 14.9 C 84 % 12.22 C
204 18-05-2021 18:55:00 14.8 C 82 % 11.76 C
205 18-05-2021 19:00:00 14.4 C 80 % 11 C
206 18-05-2021 19:05:00 14.1 C 83 % 11.26 C
207 18-05-2021 19:10:00 13.8 C 84 % 11.15 C
208 18-05-2021 19:15:00 12.9 C 80 % 9.54 C

Legende:
   Min
   Max


Maximal/Minimal-Werte vom 18.05.2021 - 18.05.2021

Sensor Min Max Avg
Temp
(Aussen-T/F)
8.8 °C
18-05-2021  06:30:00
14.9 °C
18-05-2021  18:45:00
11.14 °C
Feuchte
(Aussen-T/F)
73 %
18-05-2021  13:55:00
96 %
18-05-2021  17:00:00
89.98 %
Taupunkt
(Aussen-T/F)
7.73 C
18-05-2021  06:30:00
12.66 C
18-05-2021  18:40:00
9.49 C

Die Daten stammen von einer Davis Vantage Pro 2 Wetter-Station und werden unter Linux mit der Software wview2wettercgi und aufbereitet. Alle Angaben erfolgen ohne Gewähr für ihre Vollständigkeit oder Richtigkeit.
Kontakt: Rainer Krienke krienke@uni-koblenz.de . Meine Webseiten an der Uni Koblenz oder privat.
Version: $Revision: 0.78 $